createdAt,value
2017-10-24T00:00:39.819Z,1011.93
2017-10-24T00:01:20.494Z,1011.89
2017-10-24T00:02:01.041Z,1011.87
2017-10-24T00:02:41.603Z,1011.89
2017-10-24T00:03:22.139Z,1011.9
2017-10-24T00:04:02.729Z,1011.9
2017-10-24T00:04:43.189Z,1011.88
2017-10-24T00:05:23.727Z,1011.92
2017-10-24T00:06:04.298Z,1011.91
2017-10-24T00:06:44.866Z,1011.92
2017-10-24T00:07:25.377Z,1011.91
2017-10-24T00:08:05.922Z,1011.88
2017-10-24T00:08:46.502Z,1011.89
2017-10-24T00:09:27.068Z,1011.89
2017-10-24T00:10:07.586Z,1011.88
2017-10-24T00:10:48.123Z,1011.92
2017-10-24T00:11:28.744Z,1011.94
2017-10-24T00:12:09.270Z,1011.95
2017-10-24T00:12:49.802Z,1011.9
2017-10-24T00:13:30.301Z,1011.93
2017-10-24T00:14:10.919Z,1011.92
2017-10-24T00:14:51.559Z,1011.93
2017-10-24T00:15:32.045Z,1011.97
2017-10-24T00:16:12.537Z,1011.95
2017-10-24T00:16:53.099Z,1011.97
2017-10-24T00:17:33.828Z,1011.95
2017-10-24T00:18:14.339Z,1011.98
2017-10-24T00:18:54.860Z,1011.95
2017-10-24T00:19:35.445Z,1011.99
2017-10-24T00:20:15.985Z,1011.99
2017-10-24T00:20:56.535Z,1012.04
2017-10-24T00:21:37.065Z,1012
2017-10-24T00:22:17.699Z,1012.01
2017-10-24T00:22:58.195Z,1011.99
2017-10-24T00:23:38.802Z,1011.98
2017-10-24T00:24:19.342Z,1011.96
2017-10-24T00:24:59.841Z,1011.96
2017-10-24T00:25:40.374Z,1012
2017-10-24T00:26:20.863Z,1011.96
2017-10-24T00:27:01.430Z,1011.95
2017-10-24T00:27:41.954Z,1011.96
2017-10-24T00:28:22.487Z,1011.89
2017-10-24T00:29:03.025Z,1011.93
2017-10-24T00:29:43.538Z,1011.9
2017-10-24T00:30:24.103Z,1011.9
2017-10-24T00:31:04.697Z,1011.95
2017-10-24T00:31:45.203Z,1011.92
2017-10-24T00:32:25.707Z,1011.95
2017-10-24T00:33:06.258Z,1011.95
2017-10-24T00:33:46.812Z,1011.96
2017-10-24T00:34:27.312Z,1011.98
2017-10-24T00:35:07.859Z,1011.98
2017-10-24T00:35:48.433Z,1011.99
2017-10-24T00:36:28.917Z,1011.98
2017-10-24T00:37:09.422Z,1011.99
2017-10-24T00:37:49.966Z,1012
2017-10-24T00:38:30.539Z,1011.98
2017-10-24T00:39:11.024Z,1012.01
2017-10-24T00:39:51.559Z,1012
2017-10-24T00:40:32.126Z,1012.04
2017-10-24T00:41:12.621Z,1011.97
2017-10-24T00:41:53.177Z,1012.01
2017-10-24T00:42:33.714Z,1012.05
2017-10-24T00:43:14.250Z,1012.03
2017-10-24T00:43:54.766Z,1011.97
2017-10-24T00:44:35.286Z,1011.98
2017-10-24T00:45:15.809Z,1012.02
2017-10-24T00:45:56.450Z,1011.99
2017-10-24T00:46:36.978Z,1012.03
2017-10-24T00:47:17.451Z,1012.03
2017-10-24T00:47:58.067Z,1012.03
2017-10-24T00:48:39.585Z,1012.02
2017-10-24T00:49:20.120Z,1012
2017-10-24T00:50:00.653Z,1012.05
2017-10-24T00:50:41.208Z,1011.99
2017-10-24T00:51:21.765Z,1012.05
2017-10-24T00:52:02.291Z,1012.02
2017-10-24T00:52:42.830Z,1011.96
2017-10-24T00:53:23.322Z,1011.99
2017-10-24T00:54:03.876Z,1012.01
2017-10-24T00:54:44.420Z,1012.01
2017-10-24T00:55:24.966Z,1011.99
2017-10-24T00:56:05.459Z,1012.02
2017-10-24T00:56:45.999Z,1011.96
2017-10-24T00:57:26.536Z,1011.93
2017-10-24T00:58:07.130Z,1011.95
2017-10-24T00:58:47.616Z,1011.93
2017-10-24T00:59:28.140Z,1011.97
2017-10-24T01:00:08.659Z,1011.97
2017-10-24T01:00:49.234Z,1011.99
2017-10-24T01:01:29.766Z,1012
2017-10-24T01:02:10.288Z,1011.96
2017-10-24T01:02:50.822Z,1011.97
2017-10-24T01:03:31.391Z,1011.95
2017-10-24T01:04:11.886Z,1011.94
2017-10-24T01:04:52.473Z,1011.93
2017-10-24T01:05:32.961Z,1011.93
2017-10-24T01:06:13.501Z,1011.9
2017-10-24T01:06:54.051Z,1011.93
2017-10-24T01:07:34.574Z,1011.93
2017-10-24T01:08:15.124Z,1011.94
2017-10-24T01:08:55.669Z,1011.88
2017-10-24T01:09:36.236Z,1011.9
2017-10-24T01:10:16.791Z,1011.89
2017-10-24T01:10:57.373Z,1011.92
2017-10-24T01:11:38.048Z,1012
2017-10-24T01:12:18.556Z,1011.96
2017-10-24T01:12:59.173Z,1011.95
2017-10-24T01:13:39.678Z,1011.96
2017-10-24T01:14:20.212Z,1011.98
2017-10-24T01:15:00.710Z,1011.94
2017-10-24T01:15:41.274Z,1011.97
2017-10-24T01:16:21.758Z,1011.94
2017-10-24T01:17:02.378Z,1012.01
2017-10-24T01:17:42.926Z,1011.96
2017-10-24T01:18:23.472Z,1012
2017-10-24T01:19:03.960Z,1012.01
2017-10-24T01:19:44.533Z,1012.01
2017-10-24T01:20:25.080Z,1012.01
2017-10-24T01:21:05.680Z,1012.02
2017-10-24T01:21:46.175Z,1012.01
2017-10-24T01:22:26.717Z,1012.06
2017-10-24T01:23:07.276Z,1012.04
2017-10-24T01:23:47.798Z,1012.08
2017-10-24T01:24:28.318Z,1012.1
2017-10-24T01:25:08.865Z,1012.06
2017-10-24T01:25:49.370Z,1012.04
2017-10-24T01:26:29.979Z,1012.02
2017-10-24T01:27:10.472Z,1011.97
2017-10-24T01:27:51.034Z,1012.05
2017-10-24T01:28:31.638Z,1012.03
2017-10-24T01:29:12.141Z,1012.02
2017-10-24T01:29:52.660Z,1012.04
2017-10-24T01:30:33.241Z,1012.01
2017-10-24T01:31:13.813Z,1012.04
2017-10-24T01:31:54.267Z,1012.05
2017-10-24T01:32:34.787Z,1012.06
2017-10-24T01:33:15.339Z,1012.04
2017-10-24T01:33:55.883Z,1012.09
2017-10-24T01:34:36.435Z,1012.08
2017-10-24T01:35:16.934Z,1012.08
2017-10-24T01:35:57.478Z,1011.99
2017-10-24T01:36:37.994Z,1011.99
2017-10-24T01:37:18.533Z,1012.05
2017-10-24T01:37:59.050Z,1012
2017-10-24T01:38:39.595Z,1011.98
2017-10-24T01:39:20.161Z,1011.98
2017-10-24T01:40:00.698Z,1011.95
2017-10-24T01:40:41.218Z,1011.96
2017-10-24T01:41:21.733Z,1011.92
2017-10-24T01:42:02.329Z,1011.93
2017-10-24T01:42:42.842Z,1011.96
2017-10-24T01:43:23.430Z,1011.96
2017-10-24T01:44:03.967Z,1011.96
2017-10-24T01:44:44.595Z,1011.97
2017-10-24T01:45:25.075Z,1011.95
2017-10-24T01:46:05.600Z,1011.93
2017-10-24T01:46:46.106Z,1011.95
2017-10-24T01:47:26.647Z,1011.96
2017-10-24T01:48:07.212Z,1011.97
2017-10-24T01:48:47.723Z,1011.93
2017-10-24T01:49:28.257Z,1011.96
2017-10-24T01:50:08.805Z,1011.94
2017-10-24T01:50:49.349Z,1012
2017-10-24T01:51:29.885Z,1011.99
2017-10-24T01:52:10.425Z,1011.99
2017-10-24T01:52:50.918Z,1012.01
2017-10-24T01:53:31.487Z,1011.99
2017-10-24T01:54:11.989Z,1012.02
2017-10-24T01:54:52.555Z,1011.96
2017-10-24T01:55:33.090Z,1012
2017-10-24T01:56:13.619Z,1012.03
2017-10-24T01:56:54.149Z,1012.01
2017-10-24T01:57:34.672Z,1012.01
2017-10-24T01:58:15.208Z,1011.97
2017-10-24T01:58:55.673Z,1011.99
2017-10-24T01:59:36.236Z,1011.97
2017-10-24T02:00:16.745Z,1011.98
2017-10-24T02:00:57.292Z,1011.96
2017-10-24T02:01:37.926Z,1012
2017-10-24T02:02:18.361Z,1012.01
2017-10-24T02:02:58.871Z,1012.01
2017-10-24T02:03:39.406Z,1011.99
2017-10-24T02:04:19.962Z,1012.01
2017-10-24T02:05:00.519Z,1011.99
2017-10-24T02:05:41.022Z,1011.95
2017-10-24T02:06:21.566Z,1011.99
2017-10-24T02:07:02.112Z,1011.98
2017-10-24T02:07:42.620Z,1011.99
2017-10-24T02:08:23.202Z,1012.04
2017-10-24T02:09:03.693Z,1012.03
2017-10-24T02:09:44.258Z,1012.03
2017-10-24T02:10:24.795Z,1012.1
2017-10-24T02:11:05.307Z,1012.03
2017-10-24T02:11:45.828Z,1012.05
2017-10-24T02:12:26.422Z,1012.04
2017-10-24T02:13:06.941Z,1012.06
2017-10-24T02:13:47.506Z,1012.03
2017-10-24T02:14:28.035Z,1012.04
2017-10-24T02:15:08.560Z,1012.04
2017-10-24T02:15:49.070Z,1011.99
2017-10-24T02:16:29.625Z,1012.02
2017-10-24T02:17:10.162Z,1012.02
2017-10-24T02:17:50.690Z,1012.03
2017-10-24T02:18:31.192Z,1011.98
2017-10-24T02:19:11.744Z,1011.98
2017-10-24T02:19:52.238Z,1012.01
2017-10-24T02:20:32.789Z,1011.98
2017-10-24T02:21:13.325Z,1011.94
2017-10-24T02:21:53.840Z,1011.93
2017-10-24T02:22:34.407Z,1011.96
2017-10-24T02:23:14.972Z,1011.95
2017-10-24T02:23:55.523Z,1011.9
2017-10-24T02:24:36.059Z,1011.92
2017-10-24T02:25:16.577Z,1011.93
2017-10-24T02:25:57.062Z,1011.93
2017-10-24T02:26:37.627Z,1011.9
2017-10-24T02:27:18.147Z,1011.85
2017-10-24T02:27:58.644Z,1011.94
2017-10-24T02:28:39.212Z,1011.87
2017-10-24T02:29:19.797Z,1011.85
2017-10-24T02:30:00.301Z,1011.85
2017-10-24T02:30:40.839Z,1011.85
2017-10-24T02:31:21.394Z,1011.81
2017-10-24T02:32:01.903Z,1011.78
2017-10-24T02:32:42.449Z,1011.81
2017-10-24T02:33:22.929Z,1011.78
2017-10-24T02:34:03.479Z,1011.81
2017-10-24T02:34:44.028Z,1011.75
2017-10-24T02:35:24.562Z,1011.85
2017-10-24T02:36:05.098Z,1011.83
2017-10-24T02:36:45.664Z,1011.85
2017-10-24T02:37:26.223Z,1011.88
2017-10-24T02:38:06.784Z,1011.87
2017-10-24T02:38:47.307Z,1011.82
2017-10-24T02:39:27.850Z,1011.88
2017-10-24T02:40:08.367Z,1011.89
2017-10-24T02:40:48.817Z,1011.85
2017-10-24T02:41:29.396Z,1011.83
2017-10-24T02:42:09.874Z,1011.88
2017-10-24T02:42:50.413Z,1011.85
2017-10-24T02:43:31.092Z,1011.83
2017-10-24T02:44:11.626Z,1011.86
2017-10-24T02:44:52.173Z,1011.82
2017-10-24T02:45:32.698Z,1011.8
2017-10-24T02:46:13.249Z,1011.85
2017-10-24T02:46:53.766Z,1011.87
2017-10-24T02:47:34.313Z,1011.86
2017-10-24T02:48:14.820Z,1011.83
2017-10-24T02:48:55.362Z,1011.83
2017-10-24T02:49:35.926Z,1011.81
2017-10-24T02:50:16.466Z,1011.79
2017-10-24T02:50:57.030Z,1011.79
2017-10-24T02:51:37.557Z,1011.75
2017-10-24T02:52:18.069Z,1011.79
2017-10-24T02:52:58.634Z,1011.78
2017-10-24T02:53:39.186Z,1011.77
2017-10-24T02:54:19.672Z,1011.83
2017-10-24T02:55:00.212Z,1011.78
2017-10-24T02:55:40.737Z,1011.85
2017-10-24T02:56:21.304Z,1011.81
2017-10-24T02:57:01.802Z,1011.75
2017-10-24T02:57:42.355Z,1011.76
2017-10-24T02:58:22.870Z,1011.78
2017-10-24T02:59:03.421Z,1011.79
2017-10-24T02:59:43.928Z,1011.8
2017-10-24T03:00:24.448Z,1011.89
2017-10-24T03:01:05.024Z,1011.83
2017-10-24T03:01:45.538Z,1011.89
2017-10-24T03:02:26.167Z,1011.95
2017-10-24T03:03:06.779Z,1011.92
2017-10-24T03:03:47.297Z,1011.98
2017-10-24T03:04:27.860Z,1011.99
2017-10-24T03:05:08.348Z,1011.99
2017-10-24T03:05:48.870Z,1011.96
2017-10-24T03:06:29.438Z,1011.96
2017-10-24T03:07:09.977Z,1011.93
2017-10-24T03:07:50.488Z,1011.9
2017-10-24T03:08:31.033Z,1011.88
2017-10-24T03:09:11.595Z,1011.85
2017-10-24T03:09:52.159Z,1011.85
2017-10-24T03:10:32.675Z,1011.83
2017-10-24T03:11:13.181Z,1011.84
2017-10-24T03:11:54.554Z,1011.83
2017-10-24T03:12:35.104Z,1011.86
2017-10-24T03:13:15.637Z,1011.87
2017-10-24T03:13:56.162Z,1011.86
2017-10-24T03:14:36.785Z,1011.88
2017-10-24T03:15:17.374Z,1011.84
2017-10-24T03:15:57.843Z,1011.8
2017-10-24T03:16:38.408Z,1011.89
2017-10-24T03:17:19.017Z,1011.82
2017-10-24T03:17:59.487Z,1011.9
2017-10-24T03:18:40.030Z,1011.92
2017-10-24T03:19:20.628Z,1011.87
2017-10-24T03:20:01.157Z,1011.89
2017-10-24T03:20:41.675Z,1011.89
2017-10-24T03:21:22.251Z,1011.91
2017-10-24T03:22:02.761Z,1011.88
2017-10-24T03:22:43.249Z,1011.91
2017-10-24T03:23:23.805Z,1011.88
2017-10-24T03:24:04.305Z,1011.83
2017-10-24T03:24:44.891Z,1011.96
2017-10-24T03:25:25.452Z,1011.96
2017-10-24T03:26:05.976Z,1011.92
2017-10-24T03:26:46.439Z,1011.94
2017-10-24T03:27:26.953Z,1011.92
2017-10-24T03:28:07.508Z,1011.94
2017-10-24T03:28:48.013Z,1011.93
2017-10-24T03:29:28.532Z,1011.94
2017-10-24T03:30:09.030Z,1011.96
2017-10-24T03:30:49.619Z,1012
2017-10-24T03:31:30.090Z,1012
2017-10-24T03:32:10.599Z,1011.98
2017-10-24T03:32:51.139Z,1011.95
2017-10-24T03:33:31.707Z,1011.97
2017-10-24T03:34:12.256Z,1012.02
2017-10-24T03:34:52.733Z,1012
2017-10-24T03:35:33.265Z,1011.98
2017-10-24T03:36:13.783Z,1012.03
2017-10-24T03:36:54.309Z,1012.03
2017-10-24T03:37:34.878Z,1012.01
2017-10-24T03:38:15.467Z,1012.05
2017-10-24T03:38:55.953Z,1012.07
2017-10-24T03:39:36.533Z,1012.03
2017-10-24T03:40:16.996Z,1012.06
2017-10-24T03:40:57.578Z,1012.05
2017-10-24T03:41:38.075Z,1012.06
2017-10-24T03:42:18.628Z,1012.07
2017-10-24T03:42:59.174Z,1012.06
2017-10-24T03:43:39.718Z,1012.02
2017-10-24T03:44:20.246Z,1012.08
2017-10-24T03:45:00.759Z,1012.1
2017-10-24T03:45:41.312Z,1012.07
2017-10-24T03:46:21.824Z,1012.09
2017-10-24T03:47:02.409Z,1012.07
2017-10-24T03:47:42.937Z,1012.11
2017-10-24T03:48:23.562Z,1012.08
2017-10-24T03:49:04.042Z,1012.09
2017-10-24T03:49:44.595Z,1012.09
2017-10-24T03:50:25.119Z,1012.11
2017-10-24T03:51:05.630Z,1012.07
2017-10-24T03:51:46.166Z,1012.04
2017-10-24T03:52:26.688Z,1012.07
2017-10-24T03:53:07.219Z,1012.02
2017-10-24T03:53:47.734Z,1012.04
2017-10-24T03:54:28.237Z,1012.08
2017-10-24T03:55:08.829Z,1012.05
2017-10-24T03:55:49.342Z,1012.04
2017-10-24T03:56:29.848Z,1012.07
2017-10-24T03:57:10.400Z,1012.06
2017-10-24T03:57:50.903Z,1012.12
2017-10-24T03:58:31.464Z,1012.16
2017-10-24T03:59:11.986Z,1012.13
2017-10-24T03:59:52.543Z,1012.19
2017-10-24T04:00:33.092Z,1012.17
2017-10-24T04:01:13.601Z,1012.15
2017-10-24T04:01:54.169Z,1012.16
2017-10-24T04:02:34.750Z,1012.15
2017-10-24T04:03:15.209Z,1012.14
2017-10-24T04:03:55.759Z,1012.16
2017-10-24T04:04:36.388Z,1012.15
2017-10-24T04:05:16.895Z,1012.12
2017-10-24T04:05:57.404Z,1012.15
2017-10-24T04:06:37.930Z,1012.13
2017-10-24T04:07:18.493Z,1012.13
2017-10-24T04:07:59.010Z,1012.12
2017-10-24T04:08:39.509Z,1012.08
2017-10-24T04:09:20.129Z,1012.08
2017-10-24T04:10:00.595Z,1012.08
2017-10-24T04:10:41.157Z,1012.09
2017-10-24T04:11:21.690Z,1012.15
2017-10-24T04:12:02.214Z,1012.17
2017-10-24T04:12:42.715Z,1012.12
2017-10-24T04:13:23.246Z,1012.13
2017-10-24T04:14:03.778Z,1012.15
2017-10-24T04:14:44.273Z,1012.15
2017-10-24T04:15:24.872Z,1012.1
2017-10-24T04:16:05.418Z,1012.14
2017-10-24T04:16:45.925Z,1012.16
2017-10-24T04:17:26.433Z,1012.19
2017-10-24T04:18:06.983Z,1012.17
2017-10-24T04:18:47.488Z,1012.14
2017-10-24T04:19:28.032Z,1012.16
2017-10-24T04:20:08.588Z,1012.15
2017-10-24T04:20:49.083Z,1012.18
2017-10-24T04:21:29.621Z,1012.17
2017-10-24T04:22:10.146Z,1012.19
2017-10-24T04:22:50.645Z,1012.16
2017-10-24T04:23:31.268Z,1012.18
2017-10-24T04:24:11.770Z,1012.22
2017-10-24T04:24:52.327Z,1012.16
2017-10-24T04:25:32.827Z,1012.22
2017-10-24T04:26:13.345Z,1012.15
2017-10-24T04:26:53.853Z,1012.18
2017-10-24T04:27:34.394Z,1012.16
2017-10-24T04:28:14.983Z,1012.15
2017-10-24T04:28:55.482Z,1012.11
2017-10-24T04:29:36.009Z,1012.11
2017-10-24T04:30:16.538Z,1012.17
2017-10-24T04:30:57.064Z,1012.12
2017-10-24T04:31:37.591Z,1012.15
2017-10-24T04:32:18.135Z,1012.12
2017-10-24T04:32:58.712Z,1012.1
2017-10-24T04:33:39.215Z,1012.11
2017-10-24T04:34:19.777Z,1012.12
2017-10-24T04:35:00.337Z,1012.14
2017-10-24T04:35:40.819Z,1012.09
2017-10-24T04:36:21.418Z,1012.13
2017-10-24T04:37:01.918Z,1012.1
2017-10-24T04:37:42.450Z,1012.1
2017-10-24T04:38:23.029Z,1012.09
2017-10-24T04:39:03.550Z,1012.09
2017-10-24T04:39:44.110Z,1012.08
2017-10-24T04:40:24.670Z,1012.09
2017-10-24T04:41:05.228Z,1012.11
2017-10-24T04:41:45.836Z,1012.11
2017-10-24T04:42:26.340Z,1012.12
2017-10-24T04:43:06.871Z,1012.08
2017-10-24T04:43:47.411Z,1012.08
2017-10-24T04:44:27.972Z,1012.08
2017-10-24T04:45:08.501Z,1012.1
2017-10-24T04:45:49.100Z,1012.08
2017-10-24T04:46:29.635Z,1012.1
2017-10-24T04:47:10.130Z,1012.12
2017-10-24T04:47:50.733Z,1012.13
2017-10-24T04:48:31.298Z,1012.13
2017-10-24T04:49:11.829Z,1012.1
2017-10-24T04:49:52.340Z,1012.13
2017-10-24T04:50:32.930Z,1012.16
2017-10-24T04:51:13.454Z,1012.21
2017-10-24T04:51:53.976Z,1012.17
2017-10-24T04:52:34.550Z,1012.19
2017-10-24T04:53:15.065Z,1012.2
2017-10-24T04:53:55.596Z,1012.18
2017-10-24T04:54:36.132Z,1012.2
2017-10-24T04:55:16.690Z,1012.17
2017-10-24T04:55:57.190Z,1012.17
2017-10-24T04:56:37.677Z,1012.2
2017-10-24T04:57:18.413Z,1012.19
2017-10-24T04:57:58.972Z,1012.18
2017-10-24T04:58:39.515Z,1012.14
2017-10-24T04:59:20.056Z,1012.11
2017-10-24T05:00:00.623Z,1012.1
2017-10-24T05:00:41.147Z,1012.08
2017-10-24T05:01:21.782Z,1012.11
2017-10-24T05:02:02.452Z,1012.07
2017-10-24T05:02:43.078Z,1012.12
2017-10-24T05:04:57.378Z,1012.08
2017-10-24T05:05:37.864Z,1012.12
2017-10-24T05:06:18.395Z,1012.08
2017-10-24T05:06:58.991Z,1012.12
2017-10-24T05:07:39.679Z,1012.11
2017-10-24T05:08:20.258Z,1012.06
2017-10-24T05:09:00.759Z,1012.05
2017-10-24T05:09:41.317Z,1012.04
2017-10-24T05:10:22.094Z,1012.03
2017-10-24T05:11:02.583Z,1012.04
2017-10-24T05:11:43.219Z,1012.1
2017-10-24T05:12:23.689Z,1012.14
2017-10-24T05:13:04.239Z,1012.12
2017-10-24T05:13:44.780Z,1012.13
2017-10-24T05:14:25.305Z,1012.08
2017-10-24T05:15:05.886Z,1012.08
2017-10-24T05:15:46.390Z,1012.06
2017-10-24T05:16:26.939Z,1012.08
2017-10-24T05:17:07.458Z,1012.09
2017-10-24T05:17:47.989Z,1012.09
2017-10-24T05:18:28.503Z,1012.06
2017-10-24T05:19:09.107Z,1012.04
2017-10-24T05:19:49.626Z,1012.03
2017-10-24T05:20:30.104Z,1012.07
2017-10-24T05:21:10.696Z,1012.05
2017-10-24T05:21:51.273Z,1012.06
2017-10-24T05:22:31.755Z,1012.06
2017-10-24T05:23:12.300Z,1012.07
2017-10-24T05:23:52.777Z,1012.03
2017-10-24T05:24:33.377Z,1012.13
2017-10-24T05:25:13.904Z,1012.13
2017-10-24T05:25:54.489Z,1012.08
2017-10-24T05:26:35.015Z,1012.13
2017-10-24T05:27:15.548Z,1012.09
2017-10-24T05:27:56.089Z,1012.17
2017-10-24T05:28:36.626Z,1012.09
2017-10-24T05:29:17.159Z,1012.13
2017-10-24T05:29:57.651Z,1012.17
2017-10-24T05:30:38.248Z,1012.17
2017-10-24T05:31:18.756Z,1012.16
2017-10-24T05:31:59.303Z,1012.16
2017-10-24T05:32:39.856Z,1012.2
2017-10-24T05:33:20.420Z,1012.14
2017-10-24T05:34:00.940Z,1012.13
2017-10-24T05:34:41.501Z,1012.09
2017-10-24T05:35:22.029Z,1012.13
2017-10-24T05:36:02.516Z,1012.11
2017-10-24T05:36:43.049Z,1012.07
2017-10-24T05:37:23.603Z,1012.08
2017-10-24T05:38:04.095Z,1012.07
2017-10-24T05:38:44.719Z,1012.06
2017-10-24T05:39:25.297Z,1012.03
2017-10-24T05:40:05.845Z,1012.03
2017-10-24T05:40:46.419Z,1012.04
2017-10-24T05:41:26.916Z,1012.03
2017-10-24T05:42:07.443Z,1012.02
2017-10-24T05:42:47.974Z,1011.98
2017-10-24T05:43:28.521Z,1012.01
2017-10-24T05:44:09.021Z,1012.01
2017-10-24T05:44:49.641Z,1012.03
2017-10-24T05:45:30.143Z,1012.03
2017-10-24T05:46:10.675Z,1012.03
2017-10-24T05:46:51.201Z,1012.03
2017-10-24T05:47:31.722Z,1012
2017-10-24T05:48:12.243Z,1011.98
2017-10-24T05:48:52.838Z,1012
2017-10-24T05:49:33.352Z,1012.03
2017-10-24T05:50:13.957Z,1012.04
2017-10-24T05:50:54.518Z,1012.05
2017-10-24T05:51:35.038Z,1012.02
2017-10-24T05:52:15.574Z,1012.07
2017-10-24T05:52:56.105Z,1012.08
2017-10-24T05:53:36.621Z,1012.02
2017-10-24T05:54:17.139Z,1012.07
2017-10-24T05:54:57.728Z,1012.04
2017-10-24T05:55:38.267Z,1012.09
2017-10-24T05:56:18.783Z,1012.1
2017-10-24T05:56:59.333Z,1012.09
2017-10-24T05:57:39.860Z,1012.12
2017-10-24T05:58:20.431Z,1012.13
2017-10-24T05:59:00.957Z,1012.07
2017-10-24T05:59:41.480Z,1012.14
2017-10-24T06:00:21.985Z,1012.16
2017-10-24T06:01:02.570Z,1012.13
2017-10-24T06:01:43.057Z,1012.11
2017-10-24T06:02:23.583Z,1012.12
2017-10-24T06:03:04.148Z,1012.11
2017-10-24T06:03:44.693Z,1012.11
2017-10-24T06:04:25.317Z,1012.09
2017-10-24T06:05:05.815Z,1012.11
2017-10-24T06:05:46.427Z,1012.12
2017-10-24T06:06:26.998Z,1012.08
2017-10-24T06:07:07.983Z,1012.1
2017-10-24T06:07:48.038Z,1012.08
2017-10-24T06:08:28.613Z,1012.06
2017-10-24T06:09:09.144Z,1012.08
2017-10-24T06:09:49.698Z,1012.11
2017-10-24T06:10:30.236Z,1012.1
2017-10-24T06:11:10.768Z,1012.09
2017-10-24T06:11:51.299Z,1012.11
2017-10-24T06:12:31.904Z,1012.17
2017-10-24T06:13:12.438Z,1012.15
2017-10-24T06:13:52.961Z,1012.17
2017-10-24T06:14:33.446Z,1012.19
2017-10-24T06:15:13.996Z,1012.16
2017-10-24T06:15:54.561Z,1012.2
2017-10-24T06:16:35.144Z,1012.2
2017-10-24T06:17:15.659Z,1012.16
2017-10-24T06:17:56.199Z,1012.17
2017-10-24T06:18:36.813Z,1012.19
2017-10-24T06:19:17.307Z,1012.15
2017-10-24T06:19:57.879Z,1012.17
2017-10-24T06:20:38.372Z,1012.17
2017-10-24T06:21:18.859Z,1012.21
2017-10-24T06:21:59.414Z,1012.27
2017-10-24T06:22:39.982Z,1012.23
2017-10-24T06:23:20.537Z,1012.32
2017-10-24T06:24:01.020Z,1012.35
2017-10-24T06:24:41.700Z,1012.33
2017-10-24T06:25:22.106Z,1012.36
2017-10-24T06:26:02.705Z,1012.35
2017-10-24T06:26:43.241Z,1012.38
2017-10-24T06:27:23.791Z,1012.4
2017-10-24T06:28:04.314Z,1012.39
2017-10-24T06:28:44.859Z,1012.38
2017-10-24T06:29:25.572Z,1012.36
2017-10-24T06:30:06.693Z,1012.39
2017-10-24T06:30:47.359Z,1012.39
2017-10-24T06:31:28.163Z,1012.38
2017-10-24T06:33:57.482Z,1012.41
2017-10-24T06:34:38.026Z,1012.43
2017-10-24T06:35:18.604Z,1012.41
2017-10-24T06:35:59.169Z,1012.44
2017-10-24T06:36:39.704Z,1012.48
2017-10-24T06:37:20.272Z,1012.5
2017-10-24T06:38:00.888Z,1012.45
2017-10-24T06:38:41.591Z,1012.48
2017-10-24T06:39:22.399Z,1012.44
2017-10-24T06:40:03.184Z,1012.47
2017-10-24T06:40:43.695Z,1012.46
2017-10-24T06:41:24.226Z,1012.46
2017-10-24T06:42:04.698Z,1012.47
2017-10-24T06:42:45.278Z,1012.49
2017-10-24T06:43:25.871Z,1012.5
2017-10-24T06:44:06.374Z,1012.5
2017-10-24T06:44:46.897Z,1012.5
2017-10-24T06:45:27.472Z,1012.47
2017-10-24T06:46:08.064Z,1012.52
2017-10-24T06:46:48.629Z,1012.46
2017-10-24T06:47:29.231Z,1012.53
2017-10-24T06:48:09.729Z,1012.5
2017-10-24T06:48:50.268Z,1012.58
2017-10-24T06:49:30.861Z,1012.56
2017-10-24T06:50:11.370Z,1012.54
2017-10-24T06:50:51.879Z,1012.53
2017-10-24T06:51:32.399Z,1012.53
2017-10-24T06:52:12.960Z,1012.51
2017-10-24T06:52:53.520Z,1012.49
2017-10-24T06:53:34.011Z,1012.48
2017-10-24T06:54:14.580Z,1012.52
2017-10-24T06:54:55.143Z,1012.53
2017-10-24T06:55:35.690Z,1012.53
2017-10-24T06:56:16.188Z,1012.58
2017-10-24T06:56:56.745Z,1012.53
2017-10-24T06:57:37.280Z,1012.58
2017-10-24T06:58:17.805Z,1012.61
2017-10-24T06:58:58.289Z,1012.67
2017-10-24T06:59:38.869Z,1012.6
2017-10-24T07:00:19.444Z,1012.57
2017-10-24T07:00:59.966Z,1012.58
2017-10-24T07:01:40.514Z,1012.59
2017-10-24T07:02:21.069Z,1012.59
2017-10-24T07:03:01.606Z,1012.53
2017-10-24T07:03:42.148Z,1012.55
2017-10-24T07:04:22.723Z,1012.53
2017-10-24T07:05:03.234Z,1012.54
2017-10-24T07:05:43.783Z,1012.57
2017-10-24T07:06:24.311Z,1012.6
2017-10-24T07:07:04.867Z,1012.64
2017-10-24T07:07:45.424Z,1012.62
2017-10-24T07:08:25.984Z,1012.61
2017-10-24T07:09:06.536Z,1012.62
2017-10-24T07:09:47.084Z,1012.66
2017-10-24T07:10:27.606Z,1012.63
2017-10-24T07:11:08.164Z,1012.66
2017-10-24T07:11:48.736Z,1012.64
2017-10-24T07:12:29.274Z,1012.69
2017-10-24T07:13:09.836Z,1012.71
2017-10-24T07:13:50.388Z,1012.71
2017-10-24T07:14:30.909Z,1012.71
2017-10-24T07:15:11.473Z,1012.68
2017-10-24T07:15:52.036Z,1012.68
2017-10-24T07:16:32.589Z,1012.69
2017-10-24T07:17:13.160Z,1012.63
2017-10-24T07:17:53.705Z,1012.64
2017-10-24T07:18:34.258Z,1012.67
2017-10-24T07:19:14.841Z,1012.66
2017-10-24T07:19:55.366Z,1012.64
2017-10-24T07:20:35.938Z,1012.68
2017-10-24T07:21:16.508Z,1012.68
2017-10-24T07:21:57.066Z,1012.68
2017-10-24T07:22:37.603Z,1012.72
2017-10-24T07:23:18.127Z,1012.73
2017-10-24T07:23:58.672Z,1012.79
2017-10-24T07:24:39.310Z,1012.78
2017-10-24T07:25:19.793Z,1012.75
2017-10-24T07:26:00.333Z,1012.78
2017-10-24T07:26:40.859Z,1012.76
2017-10-24T07:27:21.400Z,1012.77
2017-10-24T07:28:01.934Z,1012.82
2017-10-24T07:28:42.510Z,1012.74
2017-10-24T07:29:23.161Z,1012.77
2017-10-24T07:30:03.731Z,1012.74
2017-10-24T07:30:44.207Z,1012.76
2017-10-24T07:31:24.753Z,1012.72
2017-10-24T07:32:05.302Z,1012.77
2017-10-24T07:32:45.877Z,1012.72
2017-10-24T07:33:26.381Z,1012.76
2017-10-24T07:34:06.906Z,1012.74
2017-10-24T07:34:47.458Z,1012.76
2017-10-24T07:35:27.988Z,1012.8
2017-10-24T07:36:08.522Z,1012.74
2017-10-24T07:36:49.080Z,1012.83
2017-10-24T07:37:29.574Z,1012.78
2017-10-24T07:38:10.158Z,1012.8
2017-10-24T07:38:50.657Z,1012.81
2017-10-24T07:39:31.218Z,1012.84
2017-10-24T07:40:11.774Z,1012.82
2017-10-24T07:40:52.267Z,1012.8
2017-10-24T07:41:32.844Z,1012.8
2017-10-24T07:42:13.385Z,1012.81
2017-10-24T07:42:53.988Z,1012.79
2017-10-24T07:43:34.497Z,1012.81
2017-10-24T07:44:15.094Z,1012.78
2017-10-24T07:44:55.610Z,1012.75
2017-10-24T07:45:36.404Z,1012.7
2017-10-24T07:46:16.959Z,1012.71
2017-10-24T07:46:57.513Z,1012.76
2017-10-24T07:47:38.054Z,1012.84
2017-10-24T07:48:18.646Z,1012.84
2017-10-24T07:48:59.154Z,1012.87
2017-10-24T07:49:39.786Z,1012.91
2017-10-24T07:50:20.346Z,1012.91
2017-10-24T07:51:00.916Z,1012.88
2017-10-24T07:51:41.475Z,1012.94
2017-10-24T07:52:22.027Z,1012.96
2017-10-24T07:53:02.603Z,1012.92
2017-10-24T07:53:43.118Z,1012.91
2017-10-24T07:54:23.639Z,1012.94
2017-10-24T07:55:04.199Z,1012.95
2017-10-24T07:55:44.731Z,1012.91
2017-10-24T07:56:25.365Z,1012.92
2017-10-24T07:57:05.838Z,1012.94
2017-10-24T07:57:46.321Z,1012.98
2017-10-24T07:58:26.850Z,1012.95
2017-10-24T07:59:07.388Z,1012.94
2017-10-24T07:59:47.912Z,1012.95
2017-10-24T08:00:28.481Z,1012.97
2017-10-24T08:01:09.008Z,1012.95
2017-10-24T08:01:49.549Z,1012.97
2017-10-24T08:02:30.057Z,1012.96
2017-10-24T08:03:10.618Z,1012.98
2017-10-24T08:03:51.170Z,1012.99
2017-10-24T08:04:32.623Z,1013
2017-10-24T08:05:12.242Z,1012.98
2017-10-24T08:05:52.847Z,1012.95
2017-10-24T08:06:33.372Z,1012.99
2017-10-24T08:07:13.933Z,1012.97
2017-10-24T08:07:54.474Z,1012.94
2017-10-24T08:08:34.984Z,1013.01
2017-10-24T08:09:15.551Z,1012.96
2017-10-24T08:09:56.083Z,1013.01
2017-10-24T08:10:36.685Z,1012.97
2017-10-24T08:11:17.354Z,1012.96
2017-10-24T08:11:58.020Z,1012.97
2017-10-24T08:12:38.698Z,1012.96
2017-10-24T08:13:20.150Z,1012.95
2017-10-24T08:14:00.765Z,1012.97
2017-10-24T08:14:41.220Z,1013.03
2017-10-24T08:15:21.759Z,1013
2017-10-24T08:16:02.328Z,1012.95